Change the Weather History Date:

Friday, April 25, 2014

  Actual Average (KALS) Record (KALS)
Temperature  
Mean Temperature 32 °F 45 °F  
Max Temperature 37 °F 62 °F 77 °F (1949)
Min Temperature 28 °F 27 °F 11 °F (1950)
Degree Days  
Heating Degree Days 32 20  
Month to date heating degree days 598  
Since 1 July heating degree days 7904  
Cooling Degree Days 0 0  
Month to date cooling degree days 0  
Year to date cooling degree days 0  
Moisture  
Dew Point 7 °F    
Average Humidity 35    
Maximum Humidity 51    
Minimum Humidity 21    
Precipitation  
Precipitation 0.00 in 0.02 in 0.30 in (1986)
Month to date precipitation 0.49  
Year to date precipitation 1.54  
Snow  
Snow 0.00 in 0.10 in 1.40 in (1948)
Month to date snowfall 3.2  
Since 1 July snowfall 26.3  
Snow Depth -    
Sea Level Pressure  
Sea Level Pressure 30.15 in    
Wind  
Wind Speed 24 mph (SW)    
Max Wind Speed 34 mph    
Max Gust Speed 48 mph    
Visibility 10 miles    
Events      
T = Trace of Precipitation, MM = Missing Value Source: NWS Daily Summary

Daily Weather History Graph

Daily Weather History Graph

Search for Another Location

Airport or City:

Trip Planner

Search our weather history database for the weather conditions in past years. The results will help you decide how hot, cold, wet, or windy it might be!

Date:

Astronomy

Apr. 25, 2014 Rise Set
Actual Time 6:19 AM MDT 7:51 PM MDT
Civil Twilight 5:51 AM MDT 8:19 PM MDT
Nautical Twilight 5:18 AM MDT 8:52 PM MDT
Astronomical Twilight 4:43 AM MDT 9:27 PM MDT
Moon 4:04 AM MDT (4/25) 4:21 PM MDT (4/25)
Length of Visible Light 14h 27m
Length of Day
13h 32m
Waning Crescent, 15% of the Moon is Illuminated
Apr 25
Waning Crescent
Apr 29
New
May 6
First Quarter
May 14
Full
May 21
Last Quarter

Hourly Weather History & Observations

Time (MDT) Temp. Windchill Dew Point Humidity Pressure Visibility Wind Dir Wind Speed Gust Speed Precip Events Conditions
12:19 AM 28.4 °F 12.7 °F -5.8 °F 23% 30.23 in 10.0 mi SW 29.9 mph - N/A   Clear
12:36 AM 28.4 °F 13.0 °F -7.6 °F 21% 30.22 in 10.0 mi SW 28.8 mph 34.5 mph N/A   Clear
12:59 AM 28.4 °F 14.1 °F -4.0 °F 25% 30.22 in 10.0 mi SW 24.2 mph 36.8 mph N/A   Clear
1:19 AM 28.4 °F 13.8 °F -4.0 °F 25% 30.22 in 10.0 mi SW 25.3 mph 29.9 mph N/A   Clear
1:37 AM 28.4 °F 14.7 °F -4.0 °F 25% 30.22 in 10.0 mi SW 21.9 mph 33.4 mph N/A   Clear
1:58 AM 28.4 °F 13.5 °F -4.0 °F 25% 30.22 in 10.0 mi SW 26.5 mph 32.2 mph N/A   Clear
2:19 AM 30.2 °F 15.7 °F 1.4 °F 29% 30.21 in 10.0 mi SW 27.6 mph 40.3 mph N/A   Clear
2:39 AM 30.2 °F 15.4 °F 1.4 °F 29% 30.20 in 10.0 mi SW 28.8 mph 39.1 mph N/A   Clear
2:52 AM 30.2 °F 15.9 °F 1.4 °F 29% 30.20 in 10.0 mi SW 26.5 mph 35.7 mph N/A   Clear
3:19 AM 30.2 °F 16.5 °F 1.4 °F 29% 30.20 in 10.0 mi SW 24.2 mph 32.2 mph N/A   Clear
3:38 AM 28.4 °F 14.7 °F 1.4 °F 31% 30.20 in 10.0 mi SW 21.9 mph - N/A   Clear
3:59 AM 28.4 °F 14.7 °F 1.4 °F 31% 30.20 in 10.0 mi SW 21.9 mph - N/A   Clear
4:13 AM 30.2 °F 16.5 °F 1.4 °F 29% 30.20 in 10.0 mi SW 24.2 mph 27.6 mph N/A   Clear
4:39 AM 28.4 °F 15.4 °F 1.4 °F 31% 30.20 in 10.0 mi SW 19.6 mph - N/A   Clear
4:55 AM 28.4 °F 15.1 °F 1.4 °F 31% 30.20 in 10.0 mi SW 20.7 mph - N/A   Clear
5:12 AM 28.4 °F 14.7 °F 1.4 °F 31% 30.20 in 10.0 mi SW 21.9 mph 25.3 mph N/A   Clear
5:37 AM 28.4 °F 14.1 °F 1.4 °F 31% 30.19 in 10.0 mi SW 24.2 mph 29.9 mph N/A   Clear
5:59 AM 28.4 °F 14.1 °F 1.4 °F 31% 30.19 in 10.0 mi SW 24.2 mph 31.1 mph N/A   Clear
6:16 AM 28.4 °F 14.4 °F 1.4 °F 31% 30.19 in 10.0 mi SW 23.0 mph 28.8 mph N/A   Clear
6:39 AM 28.4 °F 15.1 °F 1.4 °F 31% 30.19 in 10.0 mi SW 20.7 mph 26.5 mph N/A   Clear
6:59 AM 28.4 °F 15.4 °F 1.4 °F 31% 30.19 in 10.0 mi SW 19.6 mph 25.3 mph N/A   Clear
7:11 AM 28.4 °F 15.1 °F 1.4 °F 31% 30.19 in 10.0 mi SW 20.7 mph 25.3 mph N/A   Clear
7:39 AM 28.4 °F 16.2 °F 1.4 °F 31% 30.19 in 10.0 mi SW 17.3 mph 25.3 mph N/A   Clear
7:57 AM 28.4 °F 16.6 °F 1.4 °F 31% 30.19 in 10.0 mi SW 16.1 mph 24.2 mph N/A   Clear
8:19 AM 30.2 °F 18.1 °F 3.2 °F 32% 30.20 in 10.0 mi SW 18.4 mph 25.3 mph N/A   Clear
8:37 AM 32.0 °F 20.5 °F 3.2 °F 30% 30.20 in 10.0 mi SW 18.4 mph 23.0 mph N/A   Clear
8:57 AM 32.0 °F 21.2 °F 3.2 °F 30% 30.19 in 10.0 mi SSW 16.1 mph 31.1 mph N/A   Clear
9:16 AM 32.0 °F 21.6 °F 5.0 °F 32% 30.20 in 10.0 mi SSW 15.0 mph 26.5 mph N/A   Clear
9:37 AM 32.0 °F 18.9 °F 5.0 °F 32% 30.20 in 10.0 mi SW 24.2 mph 34.5 mph N/A   Clear
9:58 AM 32.0 °F 19.5 °F 6.8 °F 35% 30.19 in 10.0 mi SSW 21.9 mph 31.1 mph N/A   Clear
10:16 AM 32.0 °F 19.8 °F 8.6 °F 38% 30.19 in 10.0 mi SSW 20.7 mph 33.4 mph N/A   Clear
10:34 AM 32.0 °F 19.8 °F 8.6 °F 38% 30.19 in 10.0 mi SSW 20.7 mph 33.4 mph N/A   Clear
10:59 AM 32.0 °F 18.9 °F 10.4 °F 41% 30.19 in 10.0 mi SW 24.2 mph 35.7 mph N/A   Clear
11:19 AM 33.8 °F 22.2 °F 10.4 °F 38% 30.19 in 10.0 mi SSW 20.7 mph 31.1 mph N/A   Clear
11:29 AM 33.8 °F 23.2 °F 10.4 °F 38% 30.20 in 10.0 mi SSW 17.3 mph 27.6 mph N/A   Clear
11:58 AM 33.8 °F 21.6 °F 10.4 °F 38% 30.19 in 10.0 mi SSW 23.0 mph 33.4 mph N/A   Clear
12:15 PM 33.8 °F 21.6 °F 10.4 °F 38% 30.19 in 10.0 mi SSW 23.0 mph 32.2 mph N/A   Clear
12:36 PM 33.8 °F 22.2 °F 8.6 °F 35% 30.17 in 10.0 mi SW 20.7 mph 35.7 mph N/A   Clear
12:57 PM 33.8 °F 22.8 °F 10.4 °F 38% 30.17 in 10.0 mi SW 18.4 mph 32.2 mph N/A   Clear
1:19 PM 35.6 °F 24.0 °F 8.6 °F 33% 30.15 in 10.0 mi SW 23.0 mph 33.4 mph N/A   Clear
1:30 PM 35.6 °F 24.2 °F 10.4 °F 35% 30.15 in 10.0 mi SSW 21.9 mph 34.5 mph N/A   Clear
1:57 PM 35.6 °F 24.2 °F 8.6 °F 33% 30.15 in 10.0 mi SSW 21.9 mph 42.6 mph N/A   Clear
2:16 PM 35.6 °F 22.5 °F 10.4 °F 35% 30.14 in 10.0 mi SSW 29.9 mph 42.6 mph N/A   Clear
2:37 PM 37.4 °F 24.2 °F 8.6 °F 30% 30.14 in 10.0 mi SW 34.5 mph 48.3 mph N/A   Clear
2:57 PM 37.4 °F 25.4 °F 8.6 °F 30% 30.14 in 10.0 mi SW 27.6 mph 40.3 mph N/A   Clear
3:09 PM 37.4 °F 26.6 °F 10.4 °F 33% 30.14 in 10.0 mi SW 21.9 mph 43.7 mph N/A   Clear
3:38 PM 37.4 °F 27.8 °F 10.4 °F 33% 30.13 in 10.0 mi SSW 17.3 mph 36.8 mph N/A   Clear
3:57 PM 37.4 °F 26.1 °F 8.6 °F 30% 30.12 in 10.0 mi SSW 24.2 mph 42.6 mph N/A   Clear
4:13 PM 37.4 °F 25.9 °F 8.6 °F 30% 30.11 in 10.0 mi SSW 25.3 mph 40.3 mph N/A   Clear
4:36 PM 37.4 °F 26.4 °F 8.6 °F 30% 30.11 in 10.0 mi SW 23.0 mph 46.0 mph N/A   Clear
4:58 PM 37.4 °F 28.2 °F 10.4 °F 33% 30.10 in 10.0 mi SW 16.1 mph 35.7 mph N/A   Clear
5:17 PM 37.4 °F 24.4 °F 10.4 °F 33% 30.10 in 10.0 mi SW 33.4 mph 43.7 mph N/A   Clear
5:35 PM 37.4 °F 25.9 °F 12.2 °F 36% 30.09 in 10.0 mi SW 25.3 mph 40.3 mph N/A   Clear
5:58 PM 37.4 °F 28.2 °F 12.2 °F 36% 30.09 in 10.0 mi SW 16.1 mph 34.5 mph N/A   Clear
6:18 PM 35.6 °F 22.3 °F 14.0 °F 41% 30.08 in 10.0 mi SW 31.1 mph 47.2 mph N/A   Clear
6:39 PM 35.6 °F 23.4 °F 14.0 °F 41% 30.07 in 10.0 mi SW 25.3 mph 43.7 mph N/A   Clear
6:58 PM 35.6 °F 24.5 °F 14.0 °F 41% 30.07 in 10.0 mi SSW 20.7 mph 40.3 mph N/A   Clear
7:16 PM 33.8 °F 21.6 °F 12.2 °F 41% 30.07 in 10.0 mi SW 23.0 mph 36.8 mph N/A   Scattered Clouds
7:39 PM 33.8 °F 21.6 °F 12.2 °F 41% 30.07 in 10.0 mi SW 23.0 mph 39.1 mph N/A   Clear
7:59 PM 33.8 °F 21.0 °F 12.2 °F 41% 30.06 in 10.0 mi SW 25.3 mph 39.1 mph N/A   Scattered Clouds
8:17 PM 33.8 °F 22.2 °F 12.2 °F 41% 30.07 in 10.0 mi SW 20.7 mph 33.4 mph N/A   Mostly Cloudy
8:32 PM 33.8 °F 24.3 °F 12.2 °F 41% 30.06 in 10.0 mi SSW 13.8 mph 33.4 mph N/A   Overcast
8:57 PM 33.8 °F 22.5 °F 12.2 °F 41% 30.06 in 10.0 mi SSW 19.6 mph 41.4 mph N/A   Overcast
9:15 PM 33.8 °F 21.3 °F 14.0 °F 44% 30.05 in 10.0 mi SW 24.2 mph 38.0 mph N/A   Overcast
9:39 PM 33.8 °F 22.2 °F 14.0 °F 44% 30.06 in 10.0 mi SSW 20.7 mph 41.4 mph N/A   Overcast
9:57 PM 33.8 °F 20.1 °F 14.0 °F 44% 30.06 in 10.0 mi SW 29.9 mph 43.7 mph N/A   Overcast
10:19 PM 33.8 °F 21.0 °F 14.0 °F 44% 30.06 in 10.0 mi SW 25.3 mph 48.3 mph N/A   Overcast
10:23 PM 33.8 °F 19.4 °F 14.0 °F 44% 30.06 in 10.0 mi SW 33.4 mph 48.3 mph N/A   Overcast
11:19 PM 32.0 °F 19.2 °F 14.0 °F 48% 30.06 in 10.0 mi SW 23.0 mph 40.3 mph N/A   Overcast
11:27 PM 32.0 °F 19.8 °F 15.8 °F 51% 30.06 in 10.0 mi SSW 20.7 mph 34.5 mph N/A   Overcast
11:56 PM 32.0 °F 20.5 °F 15.8 °F 51% 30.06 in 10.0 mi SSW 18.4 mph 31.1 mph N/A   Overcast